Time;durP1;ratioP1;P1;durP2;ratioP2;P2;SDS_P1;SDS_P2;PMS_P1;PMS_P2;Temp;Humidity;BMP_temperature;BMP_pressure;BME280_temperature;BME280_humidity;BME280_pressure;Samples;Min_cycle;Max_cycle;Signal;HPM_P1;HPM_P2
2023/04/20 00:01:01;;;;;;;;;;;8.10;80.40;;;;;;5087245;28;20066;-79
2023/04/20 00:03:28;;;;;;;;;;;8.10;81.10;;;;;;5088390;28;19928;-79
2023/04/20 00:05:54;;;;;;;;;;;8.10;81.20;;;;;;5085201;28;19927;-79
2023/04/20 00:08:21;;;;;;;;;;;8.10;81.20;;;;;;5089765;28;19939;-80
2023/04/20 00:10:48;;;;;;;;;;;8.00;81.10;;;;;;5089663;28;19928;-79
2023/04/20 00:13:16;;;;;;;;;;;8.00;81.10;;;;;;5088985;28;19924;-80
2023/04/20 00:15:43;;;;;;;;;;;7.90;81.10;;;;;;5090178;28;20409;-79
2023/04/20 00:18:10;;;;;;;;;;;7.90;82.10;;;;;;5089435;28;20377;-80
2023/04/20 00:20:37;;;;;;;;;;;7.80;81.30;;;;;;5092155;28;19990;-79
2023/04/20 00:23:04;;;;;;;;;;;7.80;81.40;;;;;;5104186;28;19932;-79
2023/04/20 00:25:31;;;;;;;;;;;7.70;81.60;;;;;;5102716;28;20031;-79
2023/04/20 00:27:58;;;;;;;;;;;7.70;81.80;;;;;;5092500;28;19932;-79
2023/04/20 00:30:26;;;;;;;;;;;7.70;81.90;;;;;;5087954;28;19924;-78
2023/04/20 00:32:52;;;;;;;;;;;7.70;82.10;;;;;;5086910;28;19989;-79
2023/04/20 00:35:19;;;;;;;;;;;7.70;82.10;;;;;;5099067;28;20205;-79
2023/04/20 00:37:46;;;;;;;;;;;7.60;82.00;;;;;;5088311;28;19928;-77
2023/04/20 00:40:13;;;;;;;;;;;7.60;81.90;;;;;;5087174;28;19932;-79
2023/04/20 00:42:40;;;;;;;;;;;7.50;81.80;;;;;;5085994;28;19935;-78
2023/04/20 00:45:07;;;;;;;;;;;7.50;81.90;;;;;;5092397;28;20010;-80
2023/04/20 00:47:35;;;;;;;;;;;7.50;82.00;;;;;;5090195;28;19928;-79
2023/04/20 00:50:02;;;;;;;;;;;7.40;82.00;;;;;;5088377;28;19928;-78
2023/04/20 00:52:30;;;;;;;;;;;7.30;81.90;;;;;;5087017;28;19981;-77
2023/04/20 00:54:58;;;;;;;;;;;7.30;82.00;;;;;;5085690;28;19928;-79
2023/04/20 00:57:26;;;;;;;;;;;7.20;81.90;;;;;;5084333;28;19936;-79
2023/04/20 00:59:53;;;;;;;;;;;7.20;81.90;;;;;;5085089;28;19940;-79
2023/04/20 01:02:22;;;;;;;;;;;7.10;81.80;;;;;;5093254;28;19934;-79
2023/04/20 01:04:50;;;;;;;;;;;7.00;81.80;;;;;;5086973;28;19943;-78
2023/04/20 01:07:17;;;;;;;;;;;6.90;81.90;;;;;;5105725;28;20006;-78
2023/04/20 01:09:43;;;;;;;;;;;6.90;81.90;;;;;;5086955;28;19974;-78
2023/04/20 01:12:10;;;;;;;;;;;6.80;81.90;;;;;;5087398;28;19936;-79
2023/04/20 01:14:37;;;;;;;;;;;6.70;81.80;;;;;;5086372;28;20501;-79
2023/04/20 01:17:04;;;;;;;;;;;6.70;81.90;;;;;;5093640;28;19935;-80
2023/04/20 01:19:31;;;;;;;;;;;6.60;82.10;;;;;;5106198;28;19915;-79
2023/04/20 01:22:00;;;;;;;;;;;6.60;82.30;;;;;;5127343;28;19991;-80
2023/04/20 01:24:28;;;;;;;;;;;6.60;82.40;;;;;;5123766;28;19987;-80
2023/04/20 01:26:55;;;;;;;;;;;6.60;82.60;;;;;;5106154;28;19928;-78
2023/04/20 01:29:22;;;;;;;;;;;6.70;82.70;;;;;;5090628;28;19924;-79
2023/04/20 01:31:48;;;;;;;;;;;6.70;82.60;;;;;;5092272;28;20399;-79
2023/04/20 01:34:16;;;;;;;;;;;6.70;82.60;;;;;;5092995;28;19932;-78
2023/04/20 01:36:43;;;;;;;;;;;6.60;82.50;;;;;;5101289;28;19951;-80
2023/04/20 01:39:10;;;;;;;;;;;6.60;82.60;;;;;;5109677;28;19928;-78
2023/04/20 01:41:38;;;;;;;;;;;6.60;82.80;;;;;;5095455;28;20545;-79
2023/04/20 01:44:05;;;;;;;;;;;6.50;82.80;;;;;;5086779;28;19928;-79
2023/04/20 01:46:31;;;;;;;;;;;6.50;83.10;;;;;;5089397;28;19928;-79
2023/04/20 01:48:58;;;;;;;;;;;6.60;83.60;;;;;;5090984;28;19924;-79
2023/04/20 01:51:25;;;;;;;;;;;6.70;84.30;;;;;;5100304;28;19951;-78
2023/04/20 01:53:52;;;;;;;;;;;6.70;84.30;;;;;;5091072;28;20308;-77
2023/04/20 01:56:19;;;;;;;;;;;6.70;84.50;;;;;;5108733;28;19934;-79
2023/04/20 01:58:47;;;;;;;;;;;6.80;84.80;;;;;;5109740;28;20270;-78
2023/04/20 02:01:13;;;;;;;;;;;6.90;85.10;;;;;;5090059;28;20386;-78
2023/04/20 02:03:40;;;;;;;;;;;6.90;85.20;;;;;;5087555;28;20456;-78
2023/04/20 02:06:07;;;;;;;;;;;6.90;85.10;;;;;;5090742;28;19935;-79
2023/04/20 02:08:34;;;;;;;;;;;6.90;85.00;;;;;;5089562;28;20160;-78
2023/04/20 02:11:01;;;;;;;;;;;6.90;85.10;;;;;;5088978;28;19927;-79
2023/04/20 02:13:28;;;;;;;;;;;6.90;85.40;;;;;;5087324;28;20003;-78
2023/04/20 02:15:56;;;;;;;;;;;6.90;85.80;;;;;;5105774;28;19924;-78
2023/04/20 02:18:23;;;;;;;;;;;7.00;86.30;;;;;;5088241;28;20404;-78
2023/04/20 02:20:50;;;;;;;;;;;7.00;86.30;;;;;;5089020;28;19928;-78
2023/04/20 02:23:17;;;;;;;;;;;7.10;86.60;;;;;;5091432;28;19925;-79
2023/04/20 02:25:43;;;;;;;;;;;7.20;86.70;;;;;;5090880;28;19989;-79
2023/04/20 02:28:11;;;;;;;;;;;7.30;87.00;;;;;;5108393;28;19963;-80
2023/04/20 02:30:38;;;;;;;;;;;7.30;87.10;;;;;;5095847;28;19967;-79
2023/04/20 02:33:06;;;;;;;;;;;7.40;87.10;;;;;;5093616;28;19928;-80
2023/04/20 02:35:33;;;;;;;;;;;7.40;87.50;;;;;;5090802;28;19955;-77
2023/04/20 02:38:00;;;;;;;;;;;7.40;87.30;;;;;;5089763;28;20415;-79
2023/04/20 02:40:27;;;;;;;;;;;7.50;87.30;;;;;;5090690;28;19924;-80
2023/04/20 02:42:53;;;;;;;;;;;7.50;87.40;;;;;;5090558;28;19932;-79
2023/04/20 02:45:20;;;;;;;;;;;7.50;87.50;;;;;;5086837;28;19963;-80
2023/04/20 02:47:47;;;;;;;;;;;7.50;87.40;;;;;;5091350;28;19947;-77
2023/04/20 02:50:16;;;;;;;;;;;7.50;87.50;;;;;;5091083;28;19928;-79
2023/04/20 02:52:59;;;;;;;;;;;7.50;87.60;;;;;;5092626;28;20317;-77
2023/04/20 02:55:27;;;;;;;;;;;7.50;87.70;;;;;;5087166;28;19924;-78
2023/04/20 02:57:57;;;;;;;;;;;7.50;87.70;;;;;;5088646;28;19928;-78
2023/04/20 03:00:37;;;;;;;;;;;7.50;87.90;;;;;;5091417;28;19936;-78
2023/04/20 03:03:07;;;;;;;;;;;7.50;88.00;;;;;;5092363;28;20015;-78
2023/04/20 03:05:35;;;;;;;;;;;7.50;88.10;;;;;;5088409;28;19975;-78
2023/04/20 03:08:04;;;;;;;;;;;7.50;88.30;;;;;;5088356;28;20005;-78
2023/04/20 03:10:30;;;;;;;;;;;7.50;88.40;;;;;;5095477;28;19938;-79
2023/04/20 03:13:17;;;;;;;;;;;7.50;88.40;;;;;;5099994;28;19928;-79
2023/04/20 03:15:53;;;;;;;;;;;7.50;88.30;;;;;;5102999;28;19927;-78
2023/04/20 03:18:29;;;;;;;;;;;7.50;88.40;;;;;;5082312;28;19989;-78
2023/04/20 03:20:57;;;;;;;;;;;7.50;88.60;;;;;;5067449;28;19924;-79
2023/04/20 03:23:24;;;;;;;;;;;7.50;88.60;;;;;;5077533;28;20023;-79
2023/04/20 03:25:50;;;;;;;;;;;7.40;88.70;;;;;;5091706;28;19928;-79
2023/04/20 03:28:35;;;;;;;;;;;7.40;88.80;;;;;;5107851;28;19932;-79
2023/04/20 03:31:02;;;;;;;;;;;7.40;88.80;;;;;;5092373;28;19941;-80
2023/04/20 03:33:30;;;;;;;;;;;7.40;89.10;;;;;;5092709;28;19939;-80
2023/04/20 03:35:58;;;;;;;;;;;7.40;89.30;;;;;;5092632;28;19935;-79
2023/04/20 03:38:25;;;;;;;;;;;7.40;89.40;;;;;;5092216;28;19938;-79
2023/04/20 03:40:53;;;;;;;;;;;7.50;89.60;;;;;;5092340;28;19939;-79
2023/04/20 03:43:20;;;;;;;;;;;7.50;89.60;;;;;;5091905;28;19935;-79
2023/04/20 03:45:48;;;;;;;;;;;7.40;89.80;;;;;;5092038;28;19927;-79
2023/04/20 03:48:17;;;;;;;;;;;7.40;89.90;;;;;;5084832;28;19937;-80
2023/04/20 03:50:44;;;;;;;;;;;7.40;90.00;;;;;;5094619;28;19981;-79
2023/04/20 03:53:12;;;;;;;;;;;7.40;90.00;;;;;;5092080;28;19934;-78
2023/04/20 03:55:40;;;;;;;;;;;7.40;90.00;;;;;;5092406;28;19967;-79
2023/04/20 03:58:10;;;;;;;;;;;7.40;90.10;;;;;;5086029;28;20019;-78
2023/04/20 04:01:01;;;;;;;;;;;7.30;90.10;;;;;;5101812;28;19928;-78
2023/04/20 04:03:27;;;;;;;;;;;7.20;90.20;;;;;;5082002;28;19924;-79
2023/04/20 04:05:54;;;;;;;;;;;7.20;90.40;;;;;;5092321;28;19928;-78
2023/04/20 04:08:22;;;;;;;;;;;7.10;90.50;;;;;;5096949;28;20022;-78
2023/04/20 04:10:49;;;;;;;;;;;7.00;90.50;;;;;;5099199;28;20409;-78
2023/04/20 04:13:16;;;;;;;;;;;7.00;90.70;;;;;;5094627;22;20102;-71
2023/04/20 04:15:43;;;;;;;;;;;7.00;90.80;;;;;;5090621;28;20032;-70
2023/04/20 04:18:13;;;;;;;;;;;7.00;90.80;;;;;;5074166;28;19966;-70
2023/04/20 04:20:41;;;;;;;;;;;7.00;91.00;;;;;;5101600;28;19928;-69
2023/04/20 04:23:10;;;;;;;;;;;7.00;91.00;;;;;;5082347;28;19936;-69
2023/04/20 04:25:44;;;;;;;;;;;6.90;91.10;;;;;;5065987;28;20469;-69
2023/04/20 04:28:13;;;;;;;;;;;6.90;91.20;;;;;;5063757;28;20617;-69
2023/04/20 04:30:47;;;;;;;;;;;6.90;91.30;;;;;;5076772;28;19935;-70
2023/04/20 04:33:17;;;;;;;;;;;6.80;91.40;;;;;;5068296;28;19932;-69
2023/04/20 04:35:45;;;;;;;;;;;6.80;91.50;;;;;;5075776;28;19983;-70
2023/04/20 04:38:13;;;;;;;;;;;6.90;91.60;;;;;;5081877;28;19975;-70
2023/04/20 04:40:44;;;;;;;;;;;6.90;91.70;;;;;;5085774;28;19995;-70
2023/04/20 04:43:12;;;;;;;;;;;8.50;92.50;;;;;;5064142;28;19924;-70
2023/04/20 04:45:46;;;;;;;;;;;7.00;92.00;;;;;;5079584;28;20454;-70
2023/04/20 04:48:13;;;;;;;;;;;7.10;92.10;;;;;;5072670;28;19925;-70
2023/04/20 04:50:39;;;;;;;;;;;7.10;92.20;;;;;;5069019;28;19936;-69
2023/04/20 04:53:06;;;;;;;;;;;7.20;92.30;;;;;;5070082;28;19932;-70
2023/04/20 04:55:33;;;;;;;;;;;8.00;92.70;;;;;;5074085;28;19958;-69
2023/04/20 04:58:00;;;;;;;;;;;7.20;92.50;;;;;;5068722;28;19928;-69
2023/04/20 05:00:30;;;;;;;;;;;7.30;92.70;;;;;;5070289;28;20533;-69
2023/04/20 05:02:56;;;;;;;;;;;7.30;93.00;;;;;;5080581;28;20011;-70
2023/04/20 05:05:24;;;;;;;;;;;7.30;93.10;;;;;;5072395;28;19928;-69
2023/04/20 05:07:51;;;;;;;;;;;7.40;93.30;;;;;;5072598;28;20362;-71
2023/04/20 05:10:17;;;;;;;;;;;7.40;93.40;;;;;;5079506;28;19973;-70
2023/04/20 05:12:45;;;;;;;;;;;7.50;93.60;;;;;;5074965;28;20214;-70
2023/04/20 05:15:11;;;;;;;;;;;7.50;94.30;;;;;;5093199;28;20269;-70
2023/04/20 05:17:39;;;;;;;;;;;7.50;95.10;;;;;;5079487;28;19950;-70
2023/04/20 05:20:09;;;;;;;;;;;7.60;95.50;;;;;;5093382;28;19928;-70
2023/04/20 05:22:36;;;;;;;;;;;7.70;96.00;;;;;;5112681;28;19977;-70
2023/04/20 05:25:02;;;;;;;;;;;7.70;96.50;;;;;;5110511;28;19934;-69
2023/04/20 05:27:29;;;;;;;;;;;7.80;96.90;;;;;;5111422;28;19935;-71
2023/04/20 05:29:56;;;;;;;;;;;7.70;97.30;;;;;;5091495;28;19928;-69
2023/04/20 05:32:22;;;;;;;;;;;7.70;97.80;;;;;;5105677;28;19938;-70
2023/04/20 05:34:50;;;;;;;;;;;7.80;98.00;;;;;;5091310;28;19928;-69
2023/04/20 05:37:17;;;;;;;;;;;7.80;98.30;;;;;;5098273;28;19932;-69
2023/04/20 05:39:44;;;;;;;;;;;7.80;98.40;;;;;;5091536;28;19924;-71
2023/04/20 05:42:11;;;;;;;;;;;7.90;98.90;;;;;;5078038;28;19927;-70
2023/04/20 05:44:39;;;;;;;;;;;8.00;99.30;;;;;;5089689;28;19932;-69
2023/04/20 05:47:07;;;;;;;;;;;8.00;99.10;;;;;;5093410;28;20408;-69
2023/04/20 05:49:34;;;;;;;;;;;8.10;99.70;;;;;;5093469;28;20220;-69
2023/04/20 05:52:02;;;;;;;;;;;8.10;99.90;;;;;;5109439;28;19935;-70
2023/04/20 05:54:29;;;;;;;;;;;8.20;99.90;;;;;;5071782;28;19928;-70
2023/04/20 05:56:56;;;;;;;;;;;8.20;99.90;;;;;;5098886;28;20082;-70
2023/04/20 05:59:24;;;;;;;;;;;8.20;99.90;;;;;;5095484;28;19988;-70
2023/04/20 06:01:50;;;;;;;;;;;8.20;99.90;;;;;;5097089;28;19932;-69
2023/04/20 06:04:17;;;;;;;;;;;9.40;99.90;;;;;;5090295;28;19932;-70
2023/04/20 06:06:44;;;;;;;;;;;10.30;99.90;;;;;;5090452;28;19932;-71
2023/04/20 06:09:13;;;;;;;;;;;10.20;99.90;;;;;;5087403;28;19935;-70
2023/04/20 06:11:40;;;;;;;;;;;9.70;99.80;;;;;;5090606;28;19928;-71
2023/04/20 06:14:06;;;;;;;;;;;9.40;99.80;;;;;;5072736;28;19923;-70
2023/04/20 06:16:33;;;;;;;;;;;9.00;99.90;;;;;;5092542;28;20046;-71
2023/04/20 06:19:00;;;;;;;;;;;8.80;99.90;;;;;;5070483;28;19928;-71
2023/04/20 06:21:26;;;;;;;;;;;8.60;99.90;;;;;;5090118;28;20044;-70
2023/04/20 06:23:53;;;;;;;;;;;8.50;99.90;;;;;;5087378;28;19932;-71
2023/04/20 06:26:22;;;;;;;;;;;8.50;99.90;;;;;;5088024;28;20269;-70
2023/04/20 06:28:50;;;;;;;;;;;8.50;99.90;;;;;;5088089;28;19943;-70
2023/04/20 06:31:17;;;;;;;;;;;8.60;99.90;;;;;;5086295;28;20370;-70
2023/04/20 06:33:44;;;;;;;;;;;8.60;99.90;;;;;;5090055;28;19932;-70
2023/04/20 06:36:10;;;;;;;;;;;8.50;99.90;;;;;;5075130;28;19925;-69
2023/04/20 06:38:37;;;;;;;;;;;8.30;99.90;;;;;;5087930;28;19943;-71
2023/04/20 06:41:04;;;;;;;;;;;8.10;99.90;;;;;;5088262;28;19938;-71
2023/04/20 06:43:32;;;;;;;;;;;8.00;99.90;;;;;;5081640;28;20039;-71
2023/04/20 06:45:58;;;;;;;;;;;8.10;99.90;;;;;;5078840;28;19935;-70
2023/04/20 06:48:25;;;;;;;;;;;8.00;99.90;;;;;;5080575;28;20263;-71
2023/04/20 06:50:52;;;;;;;;;;;8.00;99.90;;;;;;5088420;28;20085;-70
2023/04/20 06:53:18;;;;;;;;;;;8.00;99.90;;;;;;5088012;28;19935;-69
2023/04/20 06:55:45;;;;;;;;;;;8.10;99.90;;;;;;5106918;28;20038;-71
2023/04/20 06:58:12;;;;;;;;;;;8.10;99.90;;;;;;5068509;28;19932;-69
2023/04/20 07:00:40;;;;;;;;;;;8.10;99.90;;;;;;5086932;28;19932;-69
2023/04/20 07:03:07;;;;;;;;;;;8.10;99.90;;;;;;5080789;28;19939;-69
2023/04/20 07:05:33;;;;;;;;;;;8.00;99.90;;;;;;5074808;28;20111;-70
2023/04/20 07:08:01;;;;;;;;;;;8.10;99.90;;;;;;5075418;28;20009;-70
2023/04/20 07:10:28;;;;;;;;;;;8.00;99.90;;;;;;5080435;28;20315;-69
2023/04/20 07:12:54;;;;;;;;;;;7.90;99.90;;;;;;5070935;28;19924;-69
2023/04/20 07:15:21;;;;;;;;;;;7.80;99.90;;;;;;5075717;28;19932;-70
2023/04/20 07:17:49;;;;;;;;;;;7.80;99.90;;;;;;5063419;28;19992;-70
2023/04/20 07:20:16;;;;;;;;;;;7.70;99.90;;;;;;5079603;28;19935;-69
2023/04/20 07:22:43;;;;;;;;;;;7.70;99.90;;;;;;5074990;28;19948;-70
2023/04/20 07:25:10;;;;;;;;;;;7.60;99.90;;;;;;5076447;28;19932;-69
2023/04/20 07:27:37;;;;;;;;;;;7.60;99.90;;;;;;5076603;28;20049;-70
2023/04/20 07:30:05;;;;;;;;;;;7.50;99.90;;;;;;5084626;28;19935;-69
2023/04/20 07:32:31;;;;;;;;;;;7.50;99.90;;;;;;5094564;28;20005;-70
2023/04/20 07:35:00;;;;;;;;;;;7.50;99.90;;;;;;5072421;28;19932;-69
2023/04/20 07:37:27;;;;;;;;;;;7.60;99.90;;;;;;5071439;28;20040;-70
2023/04/20 07:39:53;;;;;;;;;;;7.60;99.90;;;;;;5071299;28;19944;-70
2023/04/20 07:42:20;;;;;;;;;;;7.60;99.90;;;;;;5077355;28;19943;-70
2023/04/20 07:44:47;;;;;;;;;;;7.70;99.90;;;;;;5078274;28;19956;-70
2023/04/20 07:47:14;;;;;;;;;;;7.70;99.90;;;;;;5068517;28;20274;-69
2023/04/20 07:49:41;;;;;;;;;;;7.80;99.90;;;;;;5079852;28;20134;-70
2023/04/20 07:52:09;;;;;;;;;;;7.90;99.90;;;;;;5078484;28;19985;-69
2023/04/20 07:54:36;;;;;;;;;;;7.90;99.90;;;;;;5081165;28;20565;-69
2023/04/20 07:57:03;;;;;;;;;;;8.40;99.90;;;;;;5082374;28;20552;-69
2023/04/20 07:59:29;;;;;;;;;;;8.60;99.90;;;;;;5079727;28;20019;-69
2023/04/20 08:01:59;;;;;;;;;;;8.70;99.90;;;;;;5095222;28;19935;-70
2023/04/20 08:04:25;;;;;;;;;;;8.60;99.90;;;;;;5092723;28;19935;-69
2023/04/20 08:06:52;;;;;;;;;;;8.40;99.90;;;;;;5106934;28;20006;-69
2023/04/20 08:09:20;;;;;;;;;;;8.40;99.90;;;;;;5102829;28;20046;-69
2023/04/20 08:11:47;;;;;;;;;;;8.40;99.90;;;;;;5107028;28;19979;-69
2023/04/20 08:14:14;;;;;;;;;;;8.30;99.90;;;;;;5100214;28;19935;-69
2023/04/20 08:16:41;;;;;;;;;;;8.40;99.90;;;;;;5095444;28;19927;-68
2023/04/20 08:19:09;;;;;;;;;;;8.60;99.90;;;;;;5099555;28;19942;-69
2023/04/20 08:21:36;;;;;;;;;;;8.70;99.90;;;;;;5096462;28;20019;-70
2023/04/20 08:24:03;;;;;;;;;;;8.70;99.90;;;;;;5071133;28;19928;-69
2023/04/20 08:26:31;;;;;;;;;;;8.80;99.90;;;;;;5101778;28;19971;-70
2023/04/20 08:28:59;;;;;;;;;;;8.80;99.90;;;;;;5089252;28;19932;-69
2023/04/20 08:31:26;;;;;;;;;;;8.90;99.90;;;;;;5090969;28;19931;-69
2023/04/20 08:33:52;;;;;;;;;;;10.30;99.90;;;;;;5071963;28;19928;-70
2023/04/20 08:36:19;;;;;;;;;;;9.00;99.90;;;;;;5089991;28;19954;-70
2023/04/20 08:38:46;;;;;;;;;;;9.10;99.90;;;;;;5089953;28;19928;-70
2023/04/20 08:41:13;;;;;;;;;;;9.30;99.90;;;;;;5091278;28;19932;-69
2023/04/20 08:43:42;;;;;;;;;;;9.30;99.90;;;;;;5089872;28;20253;-69
2023/04/20 08:46:09;;;;;;;;;;;9.10;99.90;;;;;;5099108;28;19939;-70
2023/04/20 08:48:36;;;;;;;;;;;9.00;99.90;;;;;;5091734;28;20411;-69
2023/04/20 08:51:03;;;;;;;;;;;9.10;99.90;;;;;;5093844;28;20204;-69
2023/04/20 08:53:30;;;;;;;;;;;9.20;99.90;;;;;;5089749;28;19989;-70
2023/04/20 08:55:57;;;;;;;;;;;10.60;99.90;;;;;;5090129;28;19932;-70
2023/04/20 08:58:24;;;;;;;;;;;9.20;99.90;;;;;;5089432;28;20324;-70
2023/04/20 09:00:52;;;;;;;;;;;9.40;99.90;;;;;;5090911;28;20347;-70
2023/04/20 09:03:30;;;;;;;;;;;9.50;99.90;;;;;;5084028;28;19932;-70
2023/04/20 09:05:57;;;;;;;;;;;9.50;99.90;;;;;;5080172;28;19935;-69
2023/04/20 09:08:33;;;;;;;;;;;9.30;99.90;;;;;;5086336;28;19944;-69
2023/04/20 09:11:00;;;;;;;;;;;9.20;99.90;;;;;;5086827;28;20475;-71
2023/04/20 09:13:27;;;;;;;;;;;8.70;99.90;;;;;;5083321;28;19932;-70
2023/04/20 09:15:56;;;;;;;;;;;9.10;99.90;;;;;;5082420;28;19935;-69
2023/04/20 09:18:23;;;;;;;;;;;9.10;99.90;;;;;;5080390;28;19924;-69
2023/04/20 09:20:50;;;;;;;;;;;9.00;99.90;;;;;;5077943;28;19936;-69
2023/04/20 09:23:17;;;;;;;;;;;9.20;99.90;;;;;;5081225;28;20313;-69
2023/04/20 09:25:45;;;;;;;;;;;9.40;99.90;;;;;;5076521;28;19928;-69
2023/04/20 09:28:12;;;;;;;;;;;9.50;99.90;;;;;;5078335;28;19938;-69
2023/04/20 09:30:39;;;;;;;;;;;9.50;99.90;;;;;;5085617;28;19932;-69
2023/04/20 09:36:04;;;;;;;;;;;10.00;99.90;;;;;;5023536;28;20074;-70
2023/04/20 09:38:30;;;;;;;;;;;10.30;99.90;;;;;;5023136;28;19933;-70
2023/04/20 09:41:00;;;;;;;;;;;10.30;99.90;;;;;;5016844;28;19932;-70
2023/04/20 09:43:28;;;;;;;;;;;10.40;99.90;;;;;;5012676;28;20011;-70
2023/04/20 09:45:55;;;;;;;;;;;10.70;99.90;;;;;;5021947;28;19989;-70
2023/04/20 09:48:22;;;;;;;;;;;10.80;99.90;;;;;;5056552;22;20024;-76
2023/04/20 09:50:49;;;;;;;;;;;11.50;99.90;;;;;;5075528;28;20446;-76
2023/04/20 09:53:17;;;;;;;;;;;12.20;99.90;;;;;;5078501;28;19932;-76
2023/04/20 09:55:45;;;;;;;;;;;12.10;99.90;;;;;;5080108;28;19928;-76
2023/04/20 09:58:12;;;;;;;;;;;12.10;99.90;;;;;;5059667;28;20002;-76
2023/04/20 10:00:38;;;;;;;;;;;11.70;99.90;;;;;;5076441;28;19932;-77
2023/04/20 10:03:07;;;;;;;;;;;11.30;99.90;;;;;;5071424;28;19939;-76
2023/04/20 10:05:35;;;;;;;;;;;11.30;99.90;;;;;;5074245;28;20019;-75
2023/04/20 10:08:02;;;;;;;;;;;11.10;99.90;;;;;;5075001;28;19926;-76
2023/04/20 10:10:30;;;;;;;;;;;11.10;99.90;;;;;;5074429;28;19942;-75
2023/04/20 10:12:59;;;;;;;;;;;11.20;99.90;;;;;;5075192;28;20009;-76
2023/04/20 10:15:36;;;;;;;;;;;11.30;99.90;;;;;;5071663;28;19985;-75
2023/04/20 10:18:03;;;;;;;;;;;11.40;99.90;;;;;;5075790;28;20305;-76
2023/04/20 10:20:29;;;;;;;;;;;11.30;99.90;;;;;;5075537;28;19936;-78
2023/04/20 10:23:07;;;;;;;;;;;11.50;99.90;;;;;;5048076;28;19932;-75
2023/04/20 10:25:35;;;;;;;;;;;11.50;99.90;;;;;;5075498;28;19935;-76
2023/04/20 10:28:04;;;;;;;;;;;11.40;99.90;;;;;;5073669;28;19939;-76
2023/04/20 10:30:31;;;;;;;;;;;11.30;99.90;;;;;;5077223;28;21188;-76
2023/04/20 10:33:05;;;;;;;;;;;11.50;99.90;;;;;;5083026;28;19924;-78
2023/04/20 10:35:40;;;;;;;;;;;11.90;99.90;;;;;;5072072;28;19928;-76
2023/04/20 10:38:07;;;;;;;;;;;11.90;99.90;;;;;;5079348;28;20301;-76
2023/04/20 10:40:36;;;;;;;;;;;11.80;99.90;;;;;;5079492;28;19935;-76
2023/04/20 10:43:02;;;;;;;;;;;11.80;99.90;;;;;;5078250;28;19928;-76
2023/04/20 10:45:37;;;;;;;;;;;11.40;99.90;;;;;;5070576;28;19950;-76
2023/04/20 10:48:07;;;;;;;;;;;11.10;99.90;;;;;;5070848;28;19928;-76
2023/04/20 10:50:35;;;;;;;;;;;10.90;99.90;;;;;;5091926;28;19935;-77
2023/04/20 10:53:02;;;;;;;;;;;10.90;99.90;;;;;;5089136;28;19935;-76
2023/04/20 10:55:29;;;;;;;;;;;10.90;99.90;;;;;;5087712;28;20438;-77
2023/04/20 10:57:57;;;;;;;;;;;10.80;99.90;;;;;;5079717;28;19936;-77
2023/04/20 11:00:25;;;;;;;;;;;10.90;99.90;;;;;;5078395;28;19932;-77
2023/04/20 11:02:53;;;;;;;;;;;11.20;99.90;;;;;;5088512;28;20081;-77
2023/04/20 11:05:20;;;;;;;;;;;11.10;99.90;;;;;;5089176;28;19947;-77
2023/04/20 11:07:47;;;;;;;;;;;11.40;99.90;;;;;;5089143;28;20350;-77
2023/04/20 11:10:14;;;;;;;;;;;11.60;99.90;;;;;;5089173;28;20037;-77
2023/04/20 11:12:41;;;;;;;;;;;11.60;99.90;;;;;;5068762;28;19932;-77
2023/04/20 11:15:09;;;;;;;;;;;11.80;99.90;;;;;;5073434;28;19928;-77
2023/04/20 11:17:37;;;;;;;;;;;12.20;99.90;;;;;;5077582;28;19931;-78
2023/04/20 11:20:04;;;;;;;;;;;12.20;99.90;;;;;;5073843;28;19936;-77
2023/04/20 11:22:31;;;;;;;;;;;12.20;99.90;;;;;;5074144;28;19936;-77
2023/04/20 11:25:04;;;;;;;;;;;12.20;99.90;;;;;;5076942;28;19998;-77
2023/04/20 11:27:31;;;;;;;;;;;12.20;99.90;;;;;;5074629;28;19936;-76
2023/04/20 11:29:58;;;;;;;;;;;12.10;99.90;;;;;;5077576;28;20436;-76
2023/04/20 11:32:26;;;;;;;;;;;11.90;99.90;;;;;;5072518;28;20452;-76
2023/04/20 11:35:00;;;;;;;;;;;11.80;99.90;;;;;;5072063;28;19998;-76
2023/04/20 11:37:27;;;;;;;;;;;11.80;99.90;;;;;;5075234;28;20378;-77
2023/04/20 11:40:00;;;;;;;;;;;12.00;99.90;;;;;;5075500;28;20480;-78
2023/04/20 11:42:27;;;;;;;;;;;11.90;99.90;;;;;;5068968;28;20293;-78
2023/04/20 11:44:54;;;;;;;;;;;11.90;99.90;;;;;;5065335;28;19928;-78
2023/04/20 11:47:21;;;;;;;;;;;11.70;99.90;;;;;;5076450;28;19971;-78
2023/04/20 11:49:49;;;;;;;;;;;11.60;99.90;;;;;;5070532;28;19931;-78
2023/04/20 11:52:16;;;;;;;;;;;11.60;99.90;;;;;;5077659;28;20613;-77
2023/04/20 11:54:43;;;;;;;;;;;11.80;99.90;;;;;;5076537;28;19928;-77
2023/04/20 11:57:10;;;;;;;;;;;12.00;99.90;;;;;;5056369;28;20022;-78
2023/04/20 11:59:36;;;;;;;;;;;12.30;99.90;;;;;;5058338;28;19967;-78
2023/04/20 12:02:04;;;;;;;;;;;12.70;99.90;;;;;;5083171;28;20262;-78
2023/04/20 12:04:31;;;;;;;;;;;13.00;99.90;;;;;;5080414;28;19989;-77
2023/04/20 12:07:01;;;;;;;;;;;12.90;99.90;;;;;;5081827;28;19932;-78
2023/04/20 12:09:29;;;;;;;;;;;12.80;99.90;;;;;;5084657;28;21128;-79
2023/04/20 12:11:56;;;;;;;;;;;13.10;99.90;;;;;;5077355;28;20492;-79
2023/04/20 12:14:23;;;;;;;;;;;13.30;99.90;;;;;;5079776;28;19928;-78
2023/04/20 12:16:49;;;;;;;;;;;13.30;99.90;;;;;;5087777;28;19932;-78
2023/04/20 12:19:16;;;;;;;;;;;13.20;99.90;;;;;;5087005;28;19933;-78
2023/04/20 12:21:43;;;;;;;;;;;13.20;99.90;;;;;;5090170;28;20011;-78
2023/04/20 12:24:11;;;;;;;;;;;13.10;99.90;;;;;;5089660;28;19935;-81
2023/04/20 12:26:39;;;;;;;;;;;13.40;99.90;;;;;;5092757;28;20369;-80
2023/04/20 12:29:06;;;;;;;;;;;13.70;99.90;;;;;;5085053;28;20840;-79
2023/04/20 12:31:32;;;;;;;;;;;13.90;99.90;;;;;;5077108;28;19932;-77
2023/04/20 12:33:59;;;;;;;;;;;13.90;99.90;;;;;;5075187;28;19939;-78
2023/04/20 12:36:26;;;;;;;;;;;13.60;99.90;;;;;;5085007;28;20413;-79
2023/04/20 12:38:54;;;;;;;;;;;13.40;99.90;;;;;;5081036;28;19942;-78
2023/04/20 12:41:23;;;;;;;;;;;13.50;99.90;;;;;;5081548;28;19932;-78
2023/04/20 12:43:50;;;;;;;;;;;13.30;99.90;;;;;;5066693;28;19928;-77
2023/04/20 12:46:17;;;;;;;;;;;13.30;99.90;;;;;;5077253;28;19928;-77
2023/04/20 12:48:44;;;;;;;;;;;12.90;99.90;;;;;;5072052;28;19932;-77
2023/04/20 12:51:11;;;;;;;;;;;13.00;99.90;;;;;;5073171;28;19939;-77
2023/04/20 12:53:38;;;;;;;;;;;13.30;99.90;;;;;;5058402;28;19951;-78
2023/04/20 12:56:05;;;;;;;;;;;13.60;99.90;;;;;;5071428;28;20015;-77
2023/04/20 12:58:33;;;;;;;;;;;13.40;99.90;;;;;;5072220;28;19932;-77
2023/04/20 13:00:59;;;;;;;;;;;13.40;99.90;;;;;;5074420;28;19932;-77
2023/04/20 13:03:27;;;;;;;;;;;13.90;99.90;;;;;;5076816;28;19992;-77
2023/04/20 13:05:54;;;;;;;;;;;14.00;99.90;;;;;;5071701;28;20400;-77
2023/04/20 13:08:21;;;;;;;;;;;13.80;99.90;;;;;;5054688;28;19955;-78
2023/04/20 13:10:48;;;;;;;;;;;13.60;99.90;;;;;;5077697;28;19940;-77
2023/04/20 13:13:14;;;;;;;;;;;13.50;99.90;;;;;;5061810;28;19924;-75
2023/04/20 13:15:42;;;;;;;;;;;13.50;99.90;;;;;;5080892;28;19939;-76
2023/04/20 13:18:09;;;;;;;;;;;13.40;99.90;;;;;;5080749;28;19932;-76
2023/04/20 13:20:36;;;;;;;;;;;13.50;99.90;;;;;;5068399;28;19932;-76
2023/04/20 13:23:03;;;;;;;;;;;13.40;99.90;;;;;;5090829;28;19925;-76
2023/04/20 13:25:32;;;;;;;;;;;13.20;99.90;;;;;;5091711;28;20362;-76
2023/04/20 13:27:59;;;;;;;;;;;13.30;99.90;;;;;;5091578;28;20018;-76
2023/04/20 13:30:26;;;;;;;;;;;13.30;99.90;;;;;;5090994;28;20680;-76
2023/04/20 13:32:54;;;;;;;;;;;13.30;99.90;;;;;;5089015;28;19956;-75
2023/04/20 13:35:21;;;;;;;;;;;13.30;99.90;;;;;;5088315;28;19935;-77
2023/04/20 13:37:47;;;;;;;;;;;13.00;99.90;;;;;;5091589;28;19959;-76
2023/04/20 13:40:14;;;;;;;;;;;12.70;99.90;;;;;;5091085;28;19932;-76
2023/04/20 13:42:41;;;;;;;;;;;12.40;99.90;;;;;;5072364;28;20372;-76
2023/04/20 13:45:09;;;;;;;;;;;12.20;99.90;;;;;;5092596;28;20238;-76
2023/04/20 13:47:36;;;;;;;;;;;12.20;99.90;;;;;;5091125;28;19981;-75
2023/04/20 13:50:05;;;;;;;;;;;12.30;99.90;;;;;;5090714;28;19981;-76
2023/04/20 13:52:32;;;;;;;;;;;12.40;99.90;;;;;;5090058;28;19931;-75
2023/04/20 13:54:58;;;;;;;;;;;12.50;99.90;;;;;;5092116;28;19928;-75
2023/04/20 13:57:25;;;;;;;;;;;12.70;99.90;;;;;;5091171;28;19939;-76
2023/04/20 13:59:52;;;;;;;;;;;13.00;99.90;;;;;;5090823;28;20333;-76
2023/04/20 14:02:19;;;;;;;;;;;13.50;99.90;;;;;;5072828;28;20023;-76
2023/04/20 14:04:45;;;;;;;;;;;14.00;99.90;;;;;;5066269;28;19955;-75
2023/04/20 14:07:13;;;;;;;;;;;14.40;99.90;;;;;;5079812;28;19932;-76
2023/04/20 14:09:43;;;;;;;;;;;14.30;99.90;;;;;;5079026;28;19932;-76
2023/04/20 14:12:09;;;;;;;;;;;14.20;99.90;;;;;;5080806;28;20771;-75
2023/04/20 14:14:36;;;;;;;;;;;13.90;99.90;;;;;;5079400;28;19974;-76
2023/04/20 14:17:03;;;;;;;;;;;13.50;99.90;;;;;;5079292;28;20383;-76
2023/04/20 14:19:30;;;;;;;;;;;13.40;99.90;;;;;;5079360;28;19932;-76
2023/04/20 14:21:57;;;;;;;;;;;13.20;99.90;;;;;;5080567;28;20305;-76
2023/04/20 14:24:25;;;;;;;;;;;13.30;99.90;;;;;;5081004;28;19939;-76
2023/04/20 14:26:52;;;;;;;;;;;13.30;99.90;;;;;;5065329;28;19928;-76
2023/04/20 14:29:19;;;;;;;;;;;13.40;99.90;;;;;;5080737;28;20011;-76
2023/04/20 14:31:46;;;;;;;;;;;13.40;99.90;;;;;;5079063;28;19924;-75